| Temperature (°F) | Max | Average | Min |
|---|---|---|---|
| Max Temperature | 82 | 69.37 | 59 |
| Avg Temperature | 73.1 | 62.17 | 54.21 |
| Min Temperature | 63 | 54.63 | 50 |
| Dew Point (°F) | Max | Average | Min |
|---|---|---|---|
| Dew Point | 64 | 48.67 | 34 |
| Precipitation (in) | Max | Average | Min | Sum |
|---|---|---|---|---|
| Precipitation | 0.00 | 0.00 | 0.00 | 0.00 |
| Snowdepth | 0.00 | 0.00 | 0.00 | 0.00 |
| Wind (mph) | Max | Average | Min |
|---|---|---|---|
| Wind | 21 | 8.32 | 0 |
| Gust Wind | 37 | 0.56 | 0 |
| Sea Level Pressure (in) | Max | Average | Min |
|---|---|---|---|
| Sea Level Pressure | 30.34 | 29.93 | 29.42 |
| Date | Temperature (°F) | Dew Point (°F) | Humidity (%) | Wind Speed (mph) | Pressure (in) | Precipitation (in) | ||||||||||
|---|---|---|---|---|---|---|---|---|---|---|---|---|---|---|---|---|
| Max | Avg | Min | Max | Avg | Min | Max | Avg | Min | Max | Avg | Min | Max | Avg | Min | ||
| 6/30/2024 | 68 | 63.2 | 57 | 57 | 51.3 | 46 | 82 | 65.9 | 49 | 12 | 7.7 | 1 | 30.0 | 29.9 | 29.8 | 0.00 |
| 6/29/2024 | 75 | 66.1 | 55 | 57 | 47.3 | 43 | 77 | 52.9 | 31 | 8 | 4.6 | 2 | 30.0 | 29.9 | 29.8 | 0.00 |
| 6/28/2024 | 68 | 63.2 | 57 | 48 | 46.5 | 45 | 72 | 55.7 | 46 | 15 | 11.8 | 6 | 30.0 | 30.0 | 29.9 | 0.00 |
| 6/27/2024 | 77 | 69.8 | 61 | 57 | 53.1 | 45 | 73 | 56.5 | 38 | 20 | 12.2 | 3 | 29.9 | 29.8 | 29.7 | 0.00 |
| 6/26/2024 | 82 | 73.1 | 63 | 64 | 58.4 | 55 | 82 | 61.3 | 48 | 12 | 5.3 | 2 | 30.0 | 29.9 | 29.8 | 0.00 |
| 6/25/2024 | 82 | 72.3 | 61 | 59 | 55.8 | 54 | 82 | 57.7 | 42 | 14 | 6.6 | 0 | 30.0 | 30.0 | 29.9 | 0.00 |
| 6/24/2024 | 81 | 71.9 | 63 | 59 | 57.3 | 52 | 88 | 61.6 | 45 | 12 | 5.7 | 1 | 30.1 | 30.1 | 30.0 | 0.00 |
| 6/23/2024 | 75 | 67.4 | 57 | 59 | 53.0 | 48 | 77 | 60.7 | 47 | 9 | 6.3 | 2 | 30.1 | 30.1 | 30.0 | 0.00 |
| 6/22/2024 | 73 | 65.0 | 57 | 57 | 51.9 | 46 | 88 | 65.0 | 38 | 13 | 9.1 | 5 | 30.0 | 29.9 | 29.8 | 0.00 |
| 6/21/2024 | 77 | 65.5 | 55 | 54 | 50.3 | 45 | 94 | 61.2 | 34 | 16 | 7.8 | 0 | 30.0 | 29.9 | 29.8 | 0.00 |
| 6/20/2024 | 72 | 61.4 | 52 | 54 | 48.9 | 45 | 88 | 65.6 | 40 | 15 | 7.8 | 2 | 30.2 | 30.1 | 30.0 | 0.00 |
| 6/19/2024 | 68 | 59.9 | 55 | 52 | 48.7 | 46 | 88 | 67.6 | 46 | 17 | 9.8 | 3 | 30.2 | 30.1 | 30.0 | 0.00 |
| 6/18/2024 | 70 | 64.2 | 59 | 54 | 51.1 | 50 | 82 | 63.2 | 49 | 10 | 5.6 | 0 | 30.0 | 29.9 | 29.9 | 0.00 |
| 6/17/2024 | 73 | 63.6 | 54 | 52 | 47.4 | 43 | 82 | 58.0 | 33 | 13 | 7.8 | 2 | 29.9 | 29.8 | 29.7 | 0.00 |
| 6/16/2024 | 70 | 61.4 | 54 | 50 | 47.5 | 43 | 88 | 62.7 | 38 | 17 | 11.1 | 7 | 29.7 | 29.6 | 29.5 | 0.00 |
| 6/15/2024 | 64 | 57.1 | 52 | 54 | 49.0 | 46 | 88 | 75.4 | 55 | 21 | 12.4 | 7 | 29.6 | 29.5 | 29.4 | 0.00 |
| 6/14/2024 | 66 | 59.8 | 54 | 54 | 49.2 | 45 | 94 | 69.5 | 49 | 17 | 11.8 | 5 | 29.7 | 29.5 | 29.5 | 0.00 |
| 6/13/2024 | 63 | 56.9 | 50 | 50 | 44.9 | 41 | 88 | 65.4 | 45 | 16 | 9.4 | 3 | 30.0 | 29.9 | 29.7 | 0.00 |
| 6/12/2024 | 61 | 56.1 | 50 | 46 | 43.0 | 39 | 82 | 62.5 | 45 | 8 | 4.1 | 2 | 30.2 | 30.1 | 30.1 | 0.00 |
| 6/11/2024 | 59 | 54.2 | 50 | 46 | 43.7 | 39 | 87 | 68.0 | 48 | 12 | 5.9 | 1 | 30.1 | 30.1 | 30.0 | 0.00 |
| 6/10/2024 | 59 | 54.4 | 52 | 52 | 46.1 | 43 | 94 | 74.2 | 55 | 15 | 9.8 | 0 | 30.0 | 29.8 | 29.7 | 0.00 |
| 6/9/2024 | 61 | 57.9 | 50 | 48 | 42.1 | 39 | 67 | 56.1 | 45 | 14 | 8.8 | 3 | 30.0 | 29.9 | 29.8 | 0.00 |
| 6/8/2024 | 66 | 59.8 | 54 | 52 | 45.2 | 39 | 82 | 60.3 | 40 | 15 | 9.5 | 5 | 30.0 | 29.9 | 29.9 | 0.00 |
| 6/7/2024 | 68 | 60.5 | 52 | 52 | 45.1 | 39 | 77 | 57.6 | 40 | 14 | 9.7 | 5 | 30.1 | 30.0 | 30.0 | 0.00 |
| 6/6/2024 | 66 | 59.4 | 52 | 48 | 42.8 | 41 | 72 | 55.0 | 42 | 12 | 7.8 | 5 | 30.0 | 30.0 | 30.0 | 0.00 |
| 6/5/2024 | 63 | 57.7 | 52 | 48 | 39.8 | 34 | 82 | 53.7 | 36 | 17 | 8.9 | 2 | 30.0 | 29.9 | 29.9 | 0.00 |
| 6/4/2024 | 70 | 63.5 | 54 | 57 | 53.4 | 48 | 88 | 70.9 | 53 | 20 | 10.1 | 2 | 30.0 | 29.9 | 29.8 | 0.00 |
| 6/3/2024 | 70 | 62.8 | 55 | 55 | 52.8 | 50 | 82 | 69.5 | 56 | 9 | 5.7 | 0 | 30.2 | 30.1 | 30.0 | 0.00 |
| 6/2/2024 | 73 | 61.4 | 52 | 55 | 48.2 | 41 | 82 | 64.7 | 31 | 13 | 7.3 | 2 | 30.3 | 30.3 | 30.2 | 0.00 |
| 6/1/2024 | 61 | 55.7 | 50 | 48 | 46.5 | 45 | 87 | 72.7 | 59 | 14 | 9.2 | 3 | 30.3 | 30.3 | 30.2 | 0.00 |